createdAt,value
2023-02-12T00:02:20.871Z,95549.53
2023-02-12T00:07:22.857Z,95547.97
2023-02-12T00:12:27.594Z,95549.13
2023-02-12T00:17:30.127Z,95547.78
2023-02-12T00:22:31.956Z,95550.47
2023-02-12T00:27:34.877Z,95558.00
2023-02-12T00:32:37.430Z,95557.72
2023-02-12T00:37:39.516Z,95558.13
2023-02-12T00:42:41.629Z,95557.09
2023-02-12T00:47:43.735Z,95548.47
2023-02-12T00:52:45.963Z,95549.44
2023-02-12T00:57:48.052Z,95545.13
2023-02-12T01:02:49.974Z,95549.13
2023-02-12T01:07:53.291Z,95550.81
2023-02-12T01:12:55.538Z,95538.34
2023-02-12T01:17:57.702Z,95540.88
2023-02-12T01:23:01.793Z,95529.69
2023-02-12T01:28:03.991Z,95536.50
2023-02-12T01:33:05.967Z,95536.81
2023-02-12T01:38:08.588Z,95538.66
2023-02-12T01:43:13.184Z,95534.56
2023-02-12T01:48:17.706Z,95543.75
2023-02-12T01:53:20.553Z,95531.69
2023-02-12T01:58:25.202Z,95530.91
2023-02-12T02:03:27.309Z,95532.25
2023-02-12T02:08:29.937Z,95526.41
2023-02-12T02:13:50.582Z,95518.84
2023-02-12T02:19:31.068Z,95524.09
2023-02-12T02:24:47.859Z,95517.66
2023-02-12T02:30:27.016Z,95517.47
2023-02-12T02:35:42.994Z,95512.91
2023-02-12T02:41:20.932Z,95507.59
2023-02-12T02:46:31.652Z,95494.63
2023-02-12T02:51:37.974Z,95492.69
2023-02-12T02:56:43.108Z,95503.06
2023-02-12T03:01:49.149Z,95488.53
2023-02-12T03:06:52.950Z,95500.97
2023-02-12T03:12:01.676Z,95490.59
2023-02-12T03:17:10.110Z,95493.69
2023-02-12T03:22:18.853Z,95493.63
2023-02-12T03:27:23.174Z,95485.16
2023-02-12T03:32:33.888Z,95473.09
2023-02-12T03:37:41.490Z,95478.00
2023-02-12T03:42:58.338Z,95485.78
2023-02-12T03:48:10.567Z,95463.91
2023-02-12T03:53:12.759Z,95482.81
2023-02-12T03:58:19.385Z,95489.81
2023-02-12T04:03:21.649Z,95493.25
2023-02-12T04:08:24.863Z,95483.66
2023-02-12T04:13:39.902Z,95490.38
2023-02-12T04:18:44.124Z,95492.31
2023-02-12T04:24:20.813Z,95472.50
2023-02-12T04:29:36.171Z,95492.34
2023-02-12T04:34:49.697Z,95484.25
2023-02-12T04:39:52.691Z,95473.88
2023-02-12T04:44:54.673Z,95485.88
2023-02-12T04:49:56.593Z,95488.28
2023-02-12T04:54:58.572Z,95479.72
2023-02-12T05:00:00.658Z,95483.13
2023-02-12T05:05:02.790Z,95490.44
2023-02-12T05:10:05.188Z,95467.59
2023-02-12T05:15:07.318Z,95470.22
2023-02-12T05:20:10.470Z,95457.84
2023-02-12T05:25:12.509Z,95474.97
2023-02-12T05:30:14.481Z,95469.69
2023-02-12T05:35:16.607Z,95478.03
2023-02-12T05:40:18.836Z,95484.44
2023-02-12T05:45:21.054Z,95479.59
2023-02-12T05:50:23.193Z,95476.03
2023-02-12T05:55:34.545Z,95476.69
2023-02-12T06:00:36.479Z,95475.19
2023-02-12T06:05:38.426Z,95475.91
2023-02-12T06:10:40.377Z,95477.03
2023-02-12T06:15:42.370Z,95485.94
2023-02-12T06:20:44.279Z,95489.38
2023-02-12T06:25:46.214Z,95488.03
2023-02-12T06:30:48.229Z,95474.56
2023-02-12T06:35:50.264Z,95494.63
2023-02-12T06:40:52.589Z,95494.63
2023-02-12T06:45:54.783Z,95496.69
2023-02-12T06:50:56.929Z,95501.56
2023-02-12T06:56:03.986Z,95509.56
2023-02-12T07:01:21.629Z,95510.59
2023-02-12T07:06:24.943Z,95511.47
2023-02-12T07:11:32.692Z,95507.13
2023-02-12T07:16:34.837Z,95514.22
2023-02-12T07:21:36.924Z,95525.53
2023-02-12T07:26:39.668Z,95522.94
2023-02-12T07:31:42.071Z,95519.94
2023-02-12T07:36:44.222Z,95522.91
2023-02-12T07:41:46.190Z,95526.19
2023-02-12T07:46:49.247Z,95528.44
2023-02-12T07:51:51.157Z,95531.88
2023-02-12T07:56:53.166Z,95555.59
2023-02-12T08:01:56.541Z,95551.81
2023-02-12T08:06:59.027Z,95546.00
2023-02-12T08:12:00.999Z,95547.63
2023-02-12T08:17:02.851Z,95542.41
2023-02-12T08:22:06.588Z,95553.81
2023-02-12T08:27:08.766Z,95554.66
2023-02-12T08:39:23.248Z,95559.09
2023-02-12T08:44:57.404Z,95562.50
2023-02-12T08:49:59.520Z,95565.38
2023-02-12T08:55:01.689Z,95564.06
2023-02-12T09:00:04.325Z,95568.81
2023-02-12T09:05:06.389Z,95563.88
2023-02-12T09:10:08.907Z,95555.81
2023-02-12T09:15:11.058Z,95575.44
2023-02-12T09:20:13.337Z,95575.56
2023-02-12T09:25:15.552Z,95573.78
2023-02-12T09:30:17.888Z,95561.88
2023-02-12T09:35:19.924Z,95547.22
2023-02-12T09:40:46.268Z,95548.84
2023-02-12T09:45:56.819Z,95552.72
2023-02-12T09:51:01.104Z,95532.88
2023-02-12T09:56:03.329Z,95544.53
2023-02-12T10:01:13.151Z,95538.06
2023-02-12T10:06:21.693Z,95541.06
2023-02-12T10:11:53.412Z,95534.00
2023-02-12T10:17:17.650Z,95532.69
2023-02-12T10:22:28.409Z,95530.00
2023-02-12T10:27:33.287Z,95535.91
2023-02-12T10:32:35.901Z,95514.72
2023-02-12T10:37:43.000Z,95524.00
2023-02-12T10:42:48.671Z,95528.28
2023-02-12T10:47:54.514Z,95540.66
2023-02-12T10:53:00.995Z,95525.75
2023-02-12T10:58:05.138Z,95513.91
2023-02-12T11:03:12.931Z,95525.50
2023-02-12T11:08:31.167Z,95520.81
2023-02-12T11:13:33.372Z,95514.72
2023-02-12T11:18:36.816Z,95514.38
2023-02-12T11:23:42.613Z,95501.00
2023-02-12T11:28:56.972Z,95511.41
2023-02-12T11:34:16.170Z,95497.75
2023-02-12T11:39:32.644Z,95493.59
2023-02-12T11:44:37.553Z,95496.44
2023-02-12T11:49:41.790Z,95500.66
2023-02-12T11:54:48.089Z,95490.31
2023-02-12T11:59:50.404Z,95475.22
2023-02-12T12:04:55.425Z,95475.97
2023-02-12T12:10:21.586Z,95471.72
2023-02-12T12:15:46.589Z,95451.25
2023-02-12T12:20:55.636Z,95448.94
2023-02-12T12:26:02.150Z,95459.47
2023-02-12T12:31:11.147Z,95444.41
2023-02-12T12:36:23.780Z,95427.75
2023-02-12T12:41:50.094Z,95437.72
2023-02-12T12:47:30.438Z,95433.03
2023-02-12T12:52:55.829Z,95425.03
2023-02-12T12:58:06.756Z,95401.56
2023-02-12T13:03:34.135Z,95411.72
2023-02-12T13:09:14.743Z,95408.22
2023-02-12T13:14:47.515Z,95402.38
2023-02-12T13:20:07.924Z,95373.88
2023-02-12T13:25:52.705Z,95382.09
2023-02-12T13:30:56.429Z,95373.66
2023-02-12T13:36:03.024Z,95370.38
2023-02-12T13:41:08.260Z,95368.47
2023-02-12T13:46:10.322Z,95358.00
2023-02-12T13:51:21.189Z,95345.97
2023-02-12T13:56:40.910Z,95353.25
2023-02-12T14:01:47.498Z,95321.50
2023-02-12T14:07:00.950Z,95326.19
2023-02-12T14:12:05.231Z,95332.06
2023-02-12T14:17:29.182Z,95336.34
2023-02-12T14:22:31.080Z,95329.16
2023-02-12T14:27:36.628Z,95326.81
2023-02-12T14:32:50.918Z,95326.94
2023-02-12T14:37:55.371Z,95322.03
2023-02-12T14:42:57.573Z,95332.03
2023-02-12T14:48:00.347Z,95325.41
2023-02-12T14:53:24.348Z,95325.28
2023-02-12T14:58:27.347Z,95332.22
2023-02-12T15:03:43.295Z,95314.41
2023-02-12T15:08:51.133Z,95303.09
2023-02-12T15:14:16.569Z,95312.03
2023-02-12T15:19:21.343Z,95308.91
2023-02-12T15:24:27.759Z,95292.75
2023-02-12T15:29:34.204Z,95296.34
2023-02-12T15:34:41.971Z,95300.47
2023-02-12T15:39:45.401Z,95304.75
2023-02-12T15:44:47.503Z,95296.63
2023-02-12T15:49:49.651Z,95293.16
2023-02-12T15:54:51.836Z,95313.91
2023-02-12T15:59:56.571Z,95291.47
2023-02-12T16:04:59.716Z,95303.63
2023-02-12T16:10:02.525Z,95311.22
2023-02-12T16:15:05.682Z,95308.28
2023-02-12T16:20:22.796Z,95316.88
2023-02-12T16:25:26.553Z,95312.41
2023-02-12T16:30:33.656Z,95313.47
2023-02-12T16:35:35.939Z,95314.84
2023-02-12T16:40:37.976Z,95308.50
2023-02-12T16:45:41.481Z,95318.25
2023-02-12T16:50:53.849Z,95312.97
2023-02-12T16:55:56.300Z,95328.13
2023-02-12T17:01:02.118Z,95326.72
2023-02-12T17:06:04.291Z,95333.66
2023-02-12T17:11:06.311Z,95333.44
2023-02-12T17:16:09.991Z,95339.72
2023-02-12T17:21:38.173Z,95333.19
2023-02-12T17:26:40.270Z,95324.31
2023-02-12T17:31:42.308Z,95342.72
2023-02-12T17:36:44.306Z,95335.09
2023-02-12T17:41:46.910Z,95346.09
2023-02-12T17:46:48.893Z,95339.59
2023-02-12T17:51:51.021Z,95365.38
2023-02-12T17:56:53.048Z,95358.97
2023-02-12T18:01:55.274Z,95364.19
2023-02-12T18:06:57.802Z,95368.94
2023-02-12T18:11:59.872Z,95373.72
2023-02-12T18:17:01.757Z,95368.34
2023-02-12T18:22:03.882Z,95387.09
2023-02-12T18:27:05.935Z,95376.63
2023-02-12T18:32:08.120Z,95395.97
2023-02-12T18:37:12.349Z,95398.63
2023-02-12T18:42:14.364Z,95398.97
2023-02-12T18:47:18.673Z,95400.72
2023-02-12T18:52:21.623Z,95421.41
2023-02-12T18:57:24.048Z,95421.50
2023-02-12T19:02:26.083Z,95420.53
2023-02-12T19:07:28.214Z,95433.34
2023-02-12T19:12:30.252Z,95441.94
2023-02-12T19:17:32.257Z,95440.41
2023-02-12T19:22:35.287Z,95422.78
2023-02-12T19:27:38.954Z,95453.19
2023-02-12T19:32:40.953Z,95449.28
2023-02-12T19:37:43.318Z,95453.06
2023-02-12T19:42:45.341Z,95459.19
2023-02-12T19:47:47.965Z,95453.22
2023-02-12T19:52:50.280Z,95468.66
2023-02-12T19:57:52.448Z,95467.81
2023-02-12T20:02:54.495Z,95472.59
2023-02-12T20:07:56.530Z,95459.91
2023-02-12T20:12:58.580Z,95480.63
2023-02-12T20:18:00.570Z,95482.75
2023-02-12T20:23:02.877Z,95492.69
2023-02-12T20:28:04.963Z,95496.19
2023-02-12T20:33:07.274Z,95499.88
2023-02-12T20:38:09.354Z,95505.75
2023-02-12T20:43:11.343Z,95518.25
2023-02-12T20:48:13.398Z,95523.06
2023-02-12T20:53:15.445Z,95505.81
2023-02-12T20:58:17.472Z,95528.88
2023-02-12T21:03:19.639Z,95521.75
2023-02-12T21:08:21.758Z,95533.41
2023-02-12T21:13:25.580Z,95524.91
2023-02-12T21:18:30.025Z,95539.75
2023-02-12T21:23:33.295Z,95550.09
2023-02-12T21:28:35.952Z,95550.84
2023-02-12T21:33:39.450Z,95558.50
2023-02-12T21:38:43.249Z,95562.19
2023-02-12T21:43:48.600Z,95552.09
2023-02-12T21:48:50.569Z,95570.31
2023-02-12T21:53:57.728Z,95566.28
2023-02-12T21:58:59.858Z,95572.88
2023-02-12T22:04:02.419Z,95572.03
2023-02-12T22:09:08.039Z,95578.03
2023-02-12T22:14:13.328Z,95572.94
2023-02-12T22:19:15.479Z,95570.00
2023-02-12T22:24:17.670Z,95577.88
2023-02-12T22:29:20.440Z,95572.25
2023-02-12T22:34:23.860Z,95568.28
2023-02-12T22:39:27.341Z,95569.53
2023-02-12T22:44:29.348Z,95567.03
2023-02-12T22:49:35.731Z,95584.75
2023-02-12T22:54:37.762Z,95576.78
2023-02-12T22:59:40.023Z,95576.50
2023-02-12T23:04:42.344Z,95578.03
2023-02-12T23:09:44.893Z,95570.84
2023-02-12T23:14:46.998Z,95563.88
2023-02-12T23:19:49.220Z,95567.09
2023-02-12T23:24:51.928Z,95584.78
2023-02-12T23:29:53.999Z,95577.28
2023-02-12T23:34:56.150Z,95593.41
2023-02-12T23:39:58.123Z,95596.81
2023-02-12T23:45:00.138Z,95599.59
2023-02-12T23:50:02.208Z,95591.13
2023-02-12T23:55:04.521Z,95597.94
